Time;durP1;ratioP1;P1;durP2;ratioP2;P2;SDS_P1;SDS_P2;PMS_P1;PMS_P2;Temp;Humidity;BMP_temperature;BMP_pressure;BME280_temperature;BME280_humidity;BME280_pressure;Samples;Min_cycle;Max_cycle;Signal;HPM_P1;HPM_P2
2021/10/10 07:00:10;;;;;;;1.52;1.45;;;;;;;3.35;96.52;99791.28;6059333;23;20191;31
2021/10/10 07:02:35;;;;;;;1.48;1.40;;;;;;;3.49;96.51;99793.34;4877217;29;20132;-74
2021/10/10 07:05:02;;;;;;;0.50;0.50;;;;;;;3.74;96.42;99789.72;4878063;29;20533;-74
2021/10/10 07:07:28;;;;;;;0.50;0.50;;;;;;;3.84;95.28;99792.56;4879210;29;20399;-74
2021/10/10 07:09:53;;;;;;;1.77;1.70;;;;;;;4.08;94.91;99791.44;4879009;29;20021;-74
2021/10/10 07:14:52;;;;;;;0.73;0.73;;;;;;;3.78;94.99;99797.53;4941752;29;20051;-70
2021/10/10 07:17:18;;;;;;;2.35;2.20;;;;;;;4.15;95.05;99788.16;4953523;28;20031;-70
2021/10/10 07:19:52;;;;;;;2.03;1.92;;;;;;;4.26;94.11;99791.88;4949206;28;20058;-70
2021/10/10 07:27:23;;;;;;;0.73;0.73;;;;;;;4.66;92.86;99779.94;4951416;28;20029;-70
2021/10/10 07:29:49;;;;;;;1.52;1.40;;;;;;;4.99;91.72;99791.78;4948967;28;20027;-70
2021/10/10 07:32:14;;;;;;;2.15;0.90;;;;;;;4.68;91.68;99785.09;4950029;28;20023;-70
2021/10/10 07:34:40;;;;;;;1.60;1.50;;;;;;;4.63;92.27;99787.56;4948652;28;20429;-70
2021/10/10 07:37:05;;;;;;;1.58;1.48;;;;;;;4.74;92.38;99783.56;4948187;28;20034;-70
2021/10/10 07:39:31;;;;;;;1.92;1.83;;;;;;;5.13;91.42;99790.34;4946436;29;20023;-70
2021/10/10 07:41:56;;;;;;;1.08;1.08;;;;;;;4.99;90.59;99781.50;4953962;28;20400;-70
2021/10/10 07:44:24;;;;;;;1.05;1.05;;;;;;;5.35;91.08;99787.34;4951772;28;20024;-70
2021/10/10 07:47:06;;;;;;;1.00;0.88;;;;;;;5.33;90.06;99789.03;4953637;28;20023;-70
2021/10/10 07:49:32;;;;;;;2.45;2.28;;;;;;;5.85;89.47;99790.00;4952286;28;20023;-70
2021/10/10 07:51:57;;;;;;;1.35;1.35;;;;;;;6.04;87.15;99790.31;4953968;28;20070;-70
2021/10/10 07:54:22;;;;;;;1.30;1.30;;;;;;;6.64;85.35;99792.97;4947460;28;20023;-70
2021/10/10 07:56:47;;;;;;;1.58;1.58;;;;;;;7.06;82.32;99788.34;4946059;28;20031;-70
2021/10/10 07:59:13;;;;;;;1.85;1.75;;;;;;;7.56;79.98;99795.81;4949679;28;20476;-70
2021/10/10 08:01:38;;;;;;;2.30;2.10;;;;;;;8.94;73.54;99783.13;4945714;28;20650;-70
2021/10/10 08:04:04;;;;;;;2.38;1.45;;;;;;;11.04;64.94;99773.78;4949386;28;20441;-70
2021/10/10 08:06:29;;;;;;;2.58;2.40;;;;;;;12.35;59.16;99768.63;4945130;28;20031;-70
2021/10/10 08:08:54;;;;;;;1.58;1.48;;;;;;;13.97;55.30;99765.75;4952417;28;20055;-70
2021/10/10 08:11:19;;;;;;;1.15;1.13;;;;;;;13.41;55.37;99770.06;4942691;29;20020;-73
2021/10/10 08:13:45;;;;;;;2.47;2.28;;;;;;;13.72;54.05;99765.28;4951652;28;20042;-73
2021/10/10 08:16:10;;;;;;;2.08;1.40;;;;;;;15.11;51.09;99771.53;4942261;28;20034;-73
2021/10/10 08:18:35;;;;;;;1.85;1.42;;;;;;;14.93;50.95;99769.28;4941760;29;20397;-73
2021/10/10 08:21:01;;;;;;;1.88;1.60;;;;;;;13.81;52.92;99770.34;4949912;29;20102;-73
2021/10/10 08:23:26;;;;;;;2.40;2.20;;;;;;;15.41;49.91;99769.16;4953322;28;20166;-74
2021/10/10 08:25:51;;;;;;;1.35;1.20;;;;;;;16.21;47.98;99767.34;4950522;28;20023;-74
2021/10/10 08:28:17;;;;;;;1.23;1.17;;;;;;;16.51;45.91;99769.19;4949979;28;20035;-74
2021/10/10 08:30:42;;;;;;;1.42;1.33;;;;;;;15.94;47.10;99774.97;4949818;29;20178;-74
2021/10/10 08:33:07;;;;;;;3.25;1.77;;;;;;;15.97;47.68;99763.59;4947755;28;20023;-74
2021/10/10 08:35:33;;;;;;;2.05;1.38;;;;;;;15.20;49.54;99772.25;4948811;29;20024;-74
2021/10/10 08:37:58;;;;;;;4.70;1.52;;;;;;;16.50;46.16;99770.09;4948339;28;20050;-74
2021/10/10 08:40:24;;;;;;;2.10;2.00;;;;;;;16.94;45.09;99770.66;4947972;29;20027;-74
2021/10/10 08:42:52;;;;;;;1.45;1.35;;;;;;;16.35;45.32;99773.97;4952816;28;20019;-74
2021/10/10 08:45:40;;;;;;;1.10;1.10;;;;;;;18.13;42.19;99769.69;4951700;28;20035;-74
2021/10/10 08:48:05;;;;;;;1.80;1.70;;;;;;;18.76;40.27;99772.84;4948782;28;20130;-75
2021/10/10 08:50:31;;;;;;;6.03;1.50;;;;;;;20.93;36.90;99763.31;4952002;28;20054;-74
2021/10/10 08:52:59;;;;;;;1.33;1.23;;;;;;;22.16;34.87;99764.59;4948301;28;20038;-73
2021/10/10 08:55:27;;;;;;;1.73;1.47;;;;;;;20.52;37.27;99773.88;4948144;28;20087;-73
2021/10/10 08:57:53;;;;;;;1.00;1.00;;;;;;;22.50;33.92;99765.53;4947280;29;20113;-73
2021/10/10 09:00:23;;;;;;;2.10;1.75;;;;;;;19.92;37.60;99778.09;4949566;28;20023;-74
2021/10/10 09:02:50;;;;;;;2.83;1.70;;;;;;;21.93;35.15;99767.47;4946889;28;20023;-73
2021/10/10 09:05:16;;;;;;;1.20;1.10;;;;;;;21.59;34.97;99769.09;4943410;29;20404;-73
2021/10/10 09:07:44;;;;;;;2.15;1.25;;;;;;;22.93;33.63;99760.69;4948576;29;20020;-73
2021/10/10 09:10:27;;;;;;;1.75;1.65;;;;;;;22.66;33.29;99769.09;4944788;28;20031;-73
2021/10/10 09:13:05;;;;;;;1.42;1.38;;;;;;;23.93;30.80;99761.34;4951102;28;20030;-73
2021/10/10 09:15:31;;;;;;;3.50;2.00;;;;;;;24.58;30.29;99762.00;4944821;28;20102;-73
2021/10/10 09:17:58;;;;;;;2.13;1.42;;;;;;;23.93;31.20;99761.34;4949226;28;20066;-73
2021/10/10 09:20:37;;;;;;;4.13;2.38;;;;;;;23.56;30.65;99755.47;4962849;28;20023;-73
2021/10/10 09:23:05;;;;;;;2.35;1.45;;;;;;;20.63;35.11;99761.09;4950946;28;20382;-73
2021/10/10 09:25:31;;;;;;;5.40;1.80;;;;;;;24.36;30.50;99751.81;4947273;29;20046;-73
2021/10/10 09:28:03;;;;;;;2.15;1.50;;;;;;;24.49;29.06;99757.25;4949872;28;20455;-73
2021/10/10 09:30:47;;;;;;;1.40;1.30;;;;;;;24.39;28.87;99756.09;4951837;29;20055;-73
2021/10/10 09:33:13;;;;;;;3.28;2.03;;;;;;;24.76;28.81;99755.59;4949776;28;20023;-73
2021/10/10 09:35:40;;;;;;;4.57;2.10;;;;;;;24.09;30.35;99755.09;4953301;29;20036;-73
2021/10/10 09:38:25;;;;;;;2.42;2.08;;;;;;;20.47;34.42;99765.34;4943787;28;20035;-73
2021/10/10 09:40:59;;;;;;;1.85;1.75;;;;;;;20.40;34.86;99763.84;4950351;29;20023;-72
2021/10/10 09:43:24;;;;;;;1.92;0.85;;;;;;;22.27;32.28;99756.13;4953279;28;20106;-74
2021/10/10 09:48:15;;;;;;;2.15;1.65;;;;;;;22.71;31.52;99750.34;4952394;28;20023;-76
2021/10/10 09:50:48;;;;;;;3.50;2.22;;;;;;;20.86;32.38;99756.63;4949126;28;20051;-73
2021/10/10 09:53:18;;;;;;;2.45;1.42;;;;;;;22.00;30.80;99753.03;4951497;28;20028;-73
2021/10/10 09:55:59;;;;;;;1.83;1.70;;;;;;;23.29;29.76;99755.19;4949965;28;20020;-72
2021/10/10 09:58:39;;;;;;;1.95;1.85;;;;;;;24.18;29.17;99743.13;4953341;28;20027;-74
2021/10/10 10:01:12;;;;;;;;;;;;;;;24.07;28.38;99745.53;4944616;28;20106;-74
2021/10/10 10:03:57;;;;;;;1.10;1.05;;;;;;;23.75;28.80;99742.97;4952891;28;20005;-74
2021/10/10 10:06:23;;;;;;;2.60;1.75;;;;;;;23.53;27.99;99751.19;4943733;29;20020;-74
2021/10/10 10:08:49;;;;;;;3.63;2.13;;;;;;;25.85;25.80;99741.66;4955735;28;20044;-73
2021/10/10 10:11:16;;;;;;;1.52;1.38;;;;;;;23.85;27.82;99741.50;4945356;28;20609;-74
2021/10/10 10:13:44;;;;;;;1.95;1.27;;;;;;;24.19;27.02;99739.53;4954524;28;20027;-73
2021/10/10 10:16:12;;;;;;;1.48;1.38;;;;;;;21.60;30.16;99752.31;4945642;28;20118;-74
2021/10/10 10:18:40;;;;;;;2.35;1.38;;;;;;;22.64;28.99;99744.53;4949710;28;20107;-73
2021/10/10 10:21:07;;;;;;;1.42;1.00;;;;;;;19.96;33.07;99742.84;4951810;28;20038;-75
2021/10/10 10:23:34;;;;;;;1.02;0.90;;;;;;;18.94;34.52;99751.13;4948875;28;20397;-72
2021/10/10 10:26:01;;;;;;;1.90;1.80;;;;;;;21.07;31.96;99739.81;4953316;28;20405;-73
2021/10/10 10:28:27;;;;;;;1.45;1.23;;;;;;;19.89;32.59;99746.66;4948883;28;20366;-72
2021/10/10 10:30:53;;;;;;;1.63;1.27;;;;;;;21.12;31.82;99743.09;4953681;28;20023;-72
2021/10/10 10:33:18;;;;;;;1.88;1.52;;;;;;;18.54;34.79;99748.19;4948730;28;20377;-73
2021/10/10 10:35:45;;;;;;;1.17;1.08;;;;;;;21.32;32.92;99733.47;4953776;29;20384;-73
2021/10/10 10:38:10;;;;;;;1.92;1.67;;;;;;;20.59;31.96;99741.09;4943114;28;20114;-73
2021/10/10 10:40:39;;;;;;;5.13;2.17;;;;;;;19.11;35.24;99747.91;4952992;28;20099;-74
2021/10/10 10:43:06;;;;;;;1.33;1.23;;;;;;;20.12;33.85;99738.69;4942341;28;20056;-73
2021/10/10 10:45:37;;;;;;;4.13;2.30;;;;;;;22.46;30.55;99724.34;4954042;28;20743;-73
2021/10/10 10:48:06;;;;;;;1.90;1.50;;;;;;;22.83;30.12;99726.78;4951752;28;20046;-73
2021/10/10 10:50:40;;;;;;;1.40;1.25;;;;;;;21.75;30.11;99727.84;4954705;28;20129;-73
2021/10/10 10:53:06;;;;;;;2.40;1.63;;;;;;;21.86;30.95;99726.50;4949769;28;20110;-73
2021/10/10 10:55:37;;;;;;;2.85;1.83;;;;;;;21.91;30.70;99727.13;4949866;28;20548;-74
2021/10/10 10:58:05;;;;;;;1.05;1.00;;;;;;;23.56;28.85;99723.72;4949051;28;20056;-73
2021/10/10 11:00:45;;;;;;;0.82;0.82;;;;;;;22.30;31.21;99725.16;4946055;28;20019;-73
2021/10/10 11:03:23;;;;;;;1.13;0.88;;;;;;;22.39;30.66;99718.53;4950544;28;20384;-74
2021/10/10 11:06:17;;;;;;;1.13;1.03;;;;;;;21.61;31.38;99719.75;4949609;28;20015;-74
2021/10/10 11:08:44;;;;;;;1.30;1.20;;;;;;;22.13;30.25;99706.66;4946532;29;20030;-73
2021/10/10 11:11:23;;;;;;;1.67;1.48;;;;;;;23.02;29.40;99712.63;4945499;28;20019;-74
2021/10/10 11:13:57;;;;;;;1.27;1.20;;;;;;;23.11;29.42;99704.16;4948469;28;20039;-72
2021/10/10 11:16:25;;;;;;;2.20;1.00;;;;;;;22.21;30.28;99717.69;4951963;28;20019;-73
2021/10/10 11:18:54;;;;;;;1.20;1.10;;;;;;;23.43;29.17;99704.19;4948725;28;20042;-72
2021/10/10 11:21:24;;;;;;;1.65;1.55;;;;;;;23.88;28.81;99702.53;4954462;28;20026;-73
2021/10/10 11:23:54;;;;;;;2.47;1.77;;;;;;;24.01;27.53;99699.09;4952958;28;20038;-73
2021/10/10 11:26:20;;;;;;;1.15;0.90;;;;;;;24.27;28.51;99697.56;4950227;28;20073;-73
2021/10/10 11:28:53;;;;;;;1.60;0.93;;;;;;;24.45;26.92;99692.13;4948479;28;20377;-73
2021/10/10 11:31:23;;;;;;;1.77;1.67;;;;;;;23.63;27.72;99698.63;4949543;28;20079;-73
2021/10/10 11:33:57;;;;;;;1.05;1.00;;;;;;;22.51;29.66;99706.47;4945771;28;20019;-73
2021/10/10 11:36:37;;;;;;;5.03;1.95;;;;;;;23.30;28.08;99712.78;4948446;29;20026;-73
2021/10/10 11:39:08;;;;;;;1.67;1.58;;;;;;;21.13;31.81;99707.94;4944439;29;20051;-72
2021/10/10 11:41:42;;;;;;;2.75;1.17;;;;;;;23.04;28.90;99705.44;4948235;28;20031;-73
2021/10/10 11:44:10;;;;;;;10.73;1.77;;;;;;;21.55;29.57;99698.94;4944005;28;20540;-74
2021/10/10 11:46:40;;;;;;;0.85;0.85;;;;;;;22.67;27.91;99702.09;4943598;29;20026;-74
2021/10/10 11:49:38;;;;;;;1.23;1.13;;;;;;;22.31;28.59;99695.16;4954314;28;20031;-74
2021/10/10 11:55:06;;;;;;;1.67;1.05;;;;;;;22.97;28.16;99685.59;4947774;29;20027;-74
2021/10/10 11:57:32;;;;;;;0.90;0.80;;;;;;;24.21;27.14;99674.06;4952650;28;20027;-74
2021/10/10 12:00:09;;;;;;;10.40;3.30;;;;;;;23.60;27.22;99678.50;4948277;28;20480;-74
2021/10/10 12:02:37;;;;;;;1.15;1.00;;;;;;;22.83;28.08;99673.09;4951362;28;20034;-74
2021/10/10 12:05:07;;;;;;;0.98;0.90;;;;;;;21.34;31.84;99676.25;4954039;28;20106;-73
2021/10/10 12:07:33;;;;;;;1.00;0.98;;;;;;;19.76;34.50;99678.78;4951955;28;20027;-73
2021/10/10 12:09:59;;;;;;;1.00;1.00;;;;;;;18.89;36.93;99683.94;4943532;28;20021;-73
2021/10/10 12:12:24;;;;;;;2.78;2.08;;;;;;;18.13;36.75;99682.25;4950460;28;20019;-73
2021/10/10 12:14:55;;;;;;;3.85;2.65;;;;;;;17.32;37.42;99677.88;4953657;28;20390;-73
2021/10/10 12:17:39;;;;;;;2.42;1.38;;;;;;;17.14;39.42;99684.53;4950654;29;20023;-72
2021/10/10 12:20:16;;;;;;;1.73;1.33;;;;;;;16.64;40.23;99679.00;4945986;29;20019;-73
2021/10/10 12:22:57;;;;;;;1.20;1.08;;;;;;;16.48;39.64;99687.28;4951237;28;20078;-74
2021/10/10 12:25:26;;;;;;;0.95;0.95;;;;;;;16.56;40.07;99682.72;4952363;28;20011;-74
2021/10/10 12:28:10;;;;;;;2.40;2.03;;;;;;;16.48;41.54;99677.69;4944575;28;20050;-73
2021/10/10 12:30:57;;;;;;;2.97;1.70;;;;;;;16.57;40.10;99676.56;4952679;28;20058;-73
2021/10/10 12:33:40;;;;;;;2.88;1.17;;;;;;;16.63;40.16;99669.44;4947270;28;20378;-73
2021/10/10 12:36:05;;;;;;;1.05;0.98;;;;;;;16.81;39.40;99669.81;4952659;28;20491;-74
2021/10/10 12:38:36;;;;;;;0.93;0.88;;;;;;;16.65;39.81;99670.22;4947221;29;20031;-74
2021/10/10 12:41:26;;;;;;;1.40;1.00;;;;;;;16.16;41.91;99666.34;4943430;29;20030;-74
2021/10/10 12:44:11;;;;;;;1.38;1.20;;;;;;;16.49;41.10;99661.09;4951430;29;20381;-74
2021/10/10 12:46:49;;;;;;;0.80;0.80;;;;;;;16.39;41.68;99657.88;4943572;29;20106;-74
2021/10/10 12:49:25;;;;;;;1.55;1.20;;;;;;;15.98;42.09;99648.53;4946771;29;20026;-73
2021/10/10 12:51:52;;;;;;;1.27;1.17;;;;;;;16.27;42.91;99650.38;4950653;29;20094;-72
2021/10/10 12:54:23;;;;;;;2.90;1.20;;;;;;;15.81;41.95;99642.84;4948021;29;20023;-72
2021/10/10 12:57:03;;;;;;;1.92;1.83;;;;;;;15.92;43.02;99640.84;4945673;29;20027;-74
2021/10/10 12:59:30;;;;;;;1.90;1.23;;;;;;;15.88;42.74;99645.28;4948658;28;20023;-73
2021/10/10 13:01:56;;;;;;;1.55;0.82;;;;;;;16.11;43.57;99636.84;4946294;28;20027;-69
2021/10/10 13:04:21;;;;;;;1.02;1.00;;;;;;;16.05;41.39;99647.47;4951389;29;20092;-72
2021/10/10 13:06:48;;;;;;;0.95;0.93;;;;;;;16.07;42.49;99640.44;4956155;29;20019;-73
2021/10/10 13:09:15;;;;;;;1.25;1.13;;;;;;;15.94;42.11;99639.03;4949265;28;20051;-73
2021/10/10 13:11:41;;;;;;;2.72;1.27;;;;;;;15.90;42.54;99642.63;4954559;29;20110;-73
2021/10/10 13:14:06;;;;;;;1.42;1.35;;;;;;;16.29;42.38;99634.63;4978877;23;20047;-70
2021/10/10 13:16:32;;;;;;;6.00;1.85;;;;;;;16.34;42.73;99637.97;4976263;28;20033;-71
2021/10/10 13:18:57;;;;;;;1.35;1.25;;;;;;;16.10;41.95;99635.16;4976174;28;20018;-71
2021/10/10 13:21:23;;;;;;;1.10;0.80;;;;;;;16.25;42.23;99648.72;4976037;28;20033;-73
2021/10/10 13:23:49;;;;;;;5.68;4.03;;;;;;;16.12;41.76;99638.56;4975856;28;20027;-70
2021/10/10 13:26:14;;;;;;;1.85;1.38;;;;;;;16.04;41.79;99629.19;4976140;28;20041;-74
2021/10/10 13:28:40;;;;;;;2.47;1.55;;;;;;;15.80;42.24;99630.69;4976111;28;20026;-68
2021/10/10 13:31:05;;;;;;;4.45;2.38;;;;;;;16.07;44.17;99629.97;4975735;28;20034;-66
2021/10/10 13:33:32;;;;;;;1.17;1.17;;;;;;;16.02;42.79;99629.25;4973541;28;20022;-69
2021/10/10 13:35:59;;;;;;;1.23;1.13;;;;;;;15.87;42.89;99624.44;4975472;28;20074;-67
2021/10/10 13:38:25;;;;;;;1.58;1.48;;;;;;;15.92;43.33;99620.78;4975600;28;20022;-69
2021/10/10 13:40:52;;;;;;;1.83;1.63;;;;;;;15.98;42.91;99625.00;4975891;28;20026;-69
2021/10/10 13:43:18;;;;;;;2.40;1.02;;;;;;;15.92;42.66;99626.03;4966822;28;20444;-69
2021/10/10 13:45:44;;;;;;;1.92;1.83;;;;;;;15.66;43.10;99621.47;4975467;28;20042;-69
2021/10/10 13:48:09;;;;;;;0.80;0.80;;;;;;;15.99;42.55;99629.31;4975573;28;20022;-67
2021/10/10 13:50:35;;;;;;;0.88;0.88;;;;;;;16.01;43.20;99626.69;4975430;28;20388;-67
2021/10/10 13:53:01;;;;;;;0.95;0.93;;;;;;;15.45;43.49;99624.56;4975117;28;20392;-67
2021/10/10 13:55:27;;;;;;;0.98;0.98;;;;;;;15.58;44.36;99620.75;4975032;28;20027;-67
2021/10/10 13:57:52;;;;;;;0.93;0.88;;;;;;;15.34;43.01;99629.19;4974636;28;20027;-67
2021/10/10 14:00:17;;;;;;;1.58;1.38;;;;;;;15.36;43.60;99624.78;4975368;28;20030;-66
2021/10/10 14:02:43;;;;;;;0.70;0.70;;;;;;;15.15;43.63;99627.00;4969545;28;20038;-66
2021/10/10 14:05:08;;;;;;;0.73;0.73;;;;;;;15.26;44.17;99625.91;4966916;28;20031;-69
2021/10/10 14:07:36;;;;;;;0.73;0.73;;;;;;;15.72;44.40;99623.06;4970353;28;20023;-66
2021/10/10 14:10:03;;;;;;;1.92;1.83;;;;;;;15.92;44.75;99619.94;4973704;28;20479;-66
2021/10/10 14:12:28;;;;;;;1.33;1.02;;;;;;;15.44;43.00;99622.84;4974680;28;20472;-65
2021/10/10 14:14:55;;;;;;;0.80;0.80;;;;;;;14.90;44.27;99631.06;4971897;28;20022;-67
2021/10/10 14:17:21;;;;;;;0.95;0.80;;;;;;;14.98;43.82;99634.34;4970162;28;20022;-66
2021/10/10 14:19:47;;;;;;;1.60;1.50;;;;;;;14.34;44.14;99635.66;4975087;28;20468;-69
2021/10/10 14:22:12;;;;;;;1.30;1.20;;;;;;;14.50;43.80;99639.69;4969567;28;20054;-69
2021/10/10 14:24:37;;;;;;;1.50;1.13;;;;;;;14.68;43.29;99632.41;4971719;28;20483;-67
2021/10/10 14:27:03;;;;;;;0.80;0.77;;;;;;;15.05;42.72;99630.72;4974721;28;20450;-67
2021/10/10 14:29:28;;;;;;;0.65;0.65;;;;;;;15.11;42.63;99630.56;4974756;28;20073;-66
2021/10/10 14:31:53;;;;;;;0.57;0.57;;;;;;;15.23;42.02;99633.78;4974475;28;20015;-68
2021/10/10 14:34:19;;;;;;;1.25;1.15;;;;;;;15.28;41.28;99626.69;4973245;28;20073;-67
2021/10/10 14:36:44;;;;;;;1.17;0.73;;;;;;;15.38;42.10;99625.63;4972936;28;20030;-68
2021/10/10 14:39:12;;;;;;;0.93;0.93;;;;;;;15.00;42.17;99626.50;4970446;28;20018;-66
2021/10/10 14:41:47;;;;;;;0.82;0.82;;;;;;;14.82;42.49;99628.59;4974701;28;20394;-66
2021/10/10 14:47:01;;;;;;;0.80;0.80;;;;;;;14.77;42.30;99627.00;4971453;28;20115;-66
2021/10/10 14:49:27;;;;;;;1.08;1.02;;;;;;;15.11;42.31;99620.13;4971255;28;20026;-66
2021/10/10 14:51:52;;;;;;;1.60;1.40;;;;;;;14.61;42.73;99624.72;4974283;28;20019;-67
2021/10/10 14:54:18;;;;;;;9.35;1.80;;;;;;;14.46;43.33;99635.44;4974294;28;20033;-65
2021/10/10 14:56:43;;;;;;;2.47;1.48;;;;;;;14.35;43.53;99633.00;4974480;28;20031;-66
2021/10/10 14:59:08;;;;;;;1.30;1.20;;;;;;;14.31;43.87;99626.16;4974278;28;20070;-66
2021/10/10 15:01:34;;;;;;;1.20;1.00;;;;;;;14.28;44.24;99620.13;4971055;28;20026;-67
2021/10/10 15:04:03;;;;;;;1.02;1.00;;;;;;;14.29;44.28;99621.84;4974476;28;20027;-67
2021/10/10 15:06:30;;;;;;;0.53;0.50;;;;;;;14.09;45.07;99617.88;4970229;28;20026;-69
2021/10/10 15:08:57;;;;;;;0.57;0.57;;;;;;;14.18;44.60;99614.25;4972102;28;20018;-66
2021/10/10 15:11:22;;;;;;;0.93;0.93;;;;;;;14.24;43.80;99614.13;4970601;28;20019;-67
2021/10/10 15:13:47;;;;;;;0.70;0.70;;;;;;;14.05;45.66;99616.22;4971706;28;20030;-67
2021/10/10 15:16:13;;;;;;;1.08;1.05;;;;;;;14.30;44.25;99618.34;4968617;28;20019;-68
2021/10/10 15:18:39;;;;;;;0.98;0.98;;;;;;;14.17;44.40;99616.84;4973802;28;20029;-68
2021/10/10 15:21:04;;;;;;;1.27;0.75;;;;;;;13.91;45.83;99610.41;4968778;28;20031;-68
2021/10/10 15:23:33;;;;;;;1.00;1.00;;;;;;;14.00;45.65;99609.38;4973616;28;20018;-68
2021/10/10 15:25:58;;;;;;;0.75;0.75;;;;;;;14.05;45.77;99611.00;4972922;28;20085;-67
2021/10/10 15:28:23;;;;;;;1.38;1.27;;;;;;;14.07;45.28;99609.25;4973774;28;20468;-68
2021/10/10 15:30:49;;;;;;;0.70;0.70;;;;;;;14.08;45.97;99613.56;4973534;28;20460;-67
2021/10/10 15:33:17;;;;;;;0.93;0.88;;;;;;;13.92;47.88;99606.91;4973281;28;20081;-68
2021/10/10 15:35:43;;;;;;;1.60;1.20;;;;;;;13.75;48.87;99614.16;4967030;28;20553;-67
2021/10/10 15:38:08;;;;;;;1.35;1.25;;;;;;;13.83;48.87;99613.16;4973392;28;20042;-67
2021/10/10 15:40:34;;;;;;;0.77;0.77;;;;;;;13.63;49.82;99613.50;4973584;28;20027;-67
2021/10/10 15:43:01;;;;;;;1.42;1.33;;;;;;;13.76;49.38;99608.06;4970298;28;20030;-67
2021/10/10 15:45:27;;;;;;;1.27;1.20;;;;;;;13.43;49.55;99617.31;4973360;28;20107;-68
2021/10/10 15:47:52;;;;;;;0.95;0.82;;;;;;;13.32;49.33;99614.88;4973143;28;20062;-67
2021/10/10 15:50:17;;;;;;;1.95;1.58;;;;;;;13.42;49.70;99621.66;4971001;28;20034;-67
2021/10/10 15:52:45;;;;;;;0.90;0.90;;;;;;;13.28;50.47;99619.25;4972513;28;20027;-67
2021/10/10 15:55:13;;;;;;;0.85;0.85;;;;;;;13.33;50.94;99624.41;4971733;28;20042;-67
2021/10/10 15:57:38;;;;;;;1.30;1.27;;;;;;;13.08;52.27;99616.94;4973371;28;20069;-67
2021/10/10 16:00:05;;;;;;;0.60;0.60;;;;;;;12.95;53.56;99625.78;4968827;28;20019;-68
2021/10/10 16:02:30;;;;;;;3.55;1.85;;;;;;;12.92;53.06;99625.00;4973447;28;20065;-67
2021/10/10 16:04:56;;;;;;;1.30;1.25;;;;;;;12.78;54.74;99630.38;4970460;28;20481;-69
2021/10/10 16:07:21;;;;;;;1.13;1.13;;;;;;;12.49;56.73;99626.41;4969419;28;20023;-69
2021/10/10 16:09:46;;;;;;;2.70;2.50;;;;;;;12.27;57.63;99630.97;4969653;28;20031;-69
2021/10/10 16:12:12;;;;;;;1.30;1.30;;;;;;;12.19;59.58;99637.16;4969481;28;20026;-69
2021/10/10 16:14:37;;;;;;;1.63;1.52;;;;;;;11.83;61.32;99634.88;4972775;28;20499;-69
2021/10/10 16:17:03;;;;;;;0.65;0.57;;;;;;;11.77;62.48;99641.84;4972640;28;20507;-69
2021/10/10 16:19:28;;;;;;;1.25;1.15;;;;;;;11.64;63.34;99637.63;4971255;28;20541;-69
2021/10/10 16:21:53;;;;;;;1.33;1.08;;;;;;;11.51;64.55;99636.88;4969591;28;20031;-73
2021/10/10 16:24:20;;;;;;;2.85;1.40;;;;;;;11.33;65.85;99630.94;4971990;28;20018;-74
2021/10/10 16:26:46;;;;;;;1.38;1.23;;;;;;;11.17;66.71;99620.69;4972998;28;20021;-74
2021/10/10 16:29:12;;;;;;;1.00;1.00;;;;;;;11.03;68.03;99621.66;4972642;28;20077;-74
2021/10/10 16:31:38;;;;;;;1.42;1.33;;;;;;;10.92;68.42;99617.38;4972559;28;20424;-74
2021/10/10 16:34:08;;;;;;;0.75;0.70;;;;;;;10.84;68.77;99616.59;4967820;28;20026;-74
2021/10/10 16:36:38;;;;;;;0.73;0.70;;;;;;;10.70;69.72;99614.06;4972858;28;20117;-76
2021/10/10 16:39:06;;;;;;;0.40;0.40;;;;;;;10.40;70.86;99621.09;4979200;28;20046;-74
2021/10/10 16:41:45;;;;;;;1.25;1.23;;;;;;;10.38;71.54;99612.47;4973979;28;20025;-75
2021/10/10 16:44:10;;;;;;;0.60;0.60;;;;;;;10.29;71.35;99622.84;4978785;28;20027;-74
2021/10/10 16:46:36;;;;;;;0.98;0.98;;;;;;;10.26;68.25;99612.53;4978976;28;20030;-73
2021/10/10 16:49:01;;;;;;;1.27;1.17;;;;;;;10.32;67.10;99612.47;4979152;28;20030;-72
2021/10/10 16:51:26;;;;;;;0.57;0.57;;;;;;;10.24;67.61;99619.41;4978722;28;20030;-71
2021/10/10 16:53:52;;;;;;;1.35;1.35;;;;;;;10.15;71.34;99611.63;4978778;28;20065;-73
2021/10/10 16:56:17;;;;;;;0.50;0.50;;;;;;;10.10;71.29;99610.78;4978521;28;20113;-72
2021/10/10 16:58:42;;;;;;;1.45;1.45;;;;;;;10.02;71.87;99603.06;4978694;28;20479;-73
2021/10/10 17:01:08;;;;;;;0.85;0.85;;;;;;;10.02;71.62;99611.69;4975605;28;20054;-72
2021/10/10 17:03:33;;;;;;;1.42;1.00;;;;;;;9.90;71.94;99613.41;4973253;28;20502;-71
2021/10/10 17:05:58;;;;;;;0.70;0.70;;;;;;;9.84;72.08;99619.47;4978637;28;20015;-72
2021/10/10 17:08:26;;;;;;;1.13;1.13;;;;;;;9.74;72.21;99617.75;4978401;28;20466;-70
2021/10/10 17:10:51;;;;;;;1.38;1.33;;;;;;;9.65;73.37;99628.13;4975326;28;20030;-71
2021/10/10 17:13:24;;;;;;;0.95;0.90;;;;;;;9.40;72.89;99628.13;4978252;28;20023;-71
2021/10/10 17:15:50;;;;;;;0.75;0.75;;;;;;;9.23;73.61;99645.34;4973158;28;20023;-71
2021/10/10 17:18:15;;;;;;;1.13;1.13;;;;;;;9.10;72.95;99653.97;4978658;28;20030;-71
2021/10/10 17:20:41;;;;;;;0.75;0.75;;;;;;;9.10;72.50;99664.31;4976210;28;20053;-71
2021/10/10 17:23:06;;;;;;;1.70;1.58;;;;;;;8.92;74.03;99660.78;4978375;28;20471;-71
2021/10/10 17:25:32;;;;;;;0.82;0.82;;;;;;;8.88;74.82;99663.38;4977726;28;20479;-71
2021/10/10 17:27:57;;;;;;;2.05;1.35;;;;;;;8.77;75.67;99665.91;4977828;28;20026;-71
2021/10/10 17:30:24;;;;;;;1.80;1.50;;;;;;;8.64;76.83;99677.06;4978706;28;20468;-71
2021/10/10 17:32:51;;;;;;;1.33;1.23;;;;;;;8.61;77.62;99684.81;4973107;28;20105;-71
2021/10/10 17:35:17;;;;;;;1.73;1.63;;;;;;;8.59;77.39;99677.03;4972556;28;20216;-71
2021/10/10 17:37:42;;;;;;;0.90;0.90;;;;;;;8.57;79.19;99677.91;4974110;28;20037;-71
2021/10/10 17:40:08;;;;;;;1.70;1.60;;;;;;;8.42;78.48;99679.53;4977191;28;20063;-71
2021/10/10 17:42:34;;;;;;;1.25;1.25;;;;;;;8.28;78.98;99680.28;4978028;28;20014;-71
2021/10/10 17:45:02;;;;;;;1.70;1.60;;;;;;;8.26;78.81;99675.09;4975875;28;20014;-71
2021/10/10 17:47:28;;;;;;;1.50;1.35;;;;;;;8.04;80.26;99686.16;4978814;28;20487;-71
2021/10/10 17:49:53;;;;;;;1.55;1.45;;;;;;;7.80;81.38;99692.88;4973382;28;20027;-71
2021/10/10 17:52:18;;;;;;;1.20;1.20;;;;;;;7.89;80.77;99698.09;4974462;28;20027;-71
2021/10/10 17:54:43;;;;;;;1.95;1.52;;;;;;;7.88;80.00;99696.38;4974453;28;20023;-71
2021/10/10 17:57:10;;;;;;;2.35;2.15;;;;;;;7.76;80.05;99698.84;4975253;28;20113;-71
2021/10/10 18:10:28;;;;;;;1.60;1.48;;;;;;;7.88;81.50;99706.69;4973419;28;20038;-71
2021/10/10 18:12:53;;;;;;;1.70;1.00;;;;;;;7.96;81.68;99709.31;4973865;28;20400;-71
2021/10/10 18:15:24;;;;;;;1.58;1.05;;;;;;;7.92;81.29;99708.44;4972055;28;20030;-71
2021/10/10 18:17:50;;;;;;;2.25;2.15;;;;;;;7.78;81.59;99704.88;4974729;28;20019;-71
2021/10/10 18:20:18;;;;;;;1.02;1.02;;;;;;;7.74;82.19;99698.00;4974770;28;20476;-71
2021/10/10 18:22:44;;;;;;;1.67;1.58;;;;;;;7.75;82.40;99712.59;4972108;28;20027;-71
2021/10/10 18:25:10;;;;;;;1.27;1.27;;;;;;;7.82;81.76;99705.78;4973807;28;20109;-72
2021/10/10 18:27:35;;;;;;;1.05;1.05;;;;;;;7.70;82.48;99706.53;4974569;28;20046;-73
2021/10/10 18:30:02;;;;;;;1.70;1.60;;;;;;;7.62;82.93;99705.59;4974638;28;20086;-72
2021/10/10 18:32:27;;;;;;;1.27;1.25;;;;;;;7.64;83.58;99712.53;4970316;28;20023;-72
2021/10/10 18:34:53;;;;;;;1.75;1.55;;;;;;;7.63;83.31;99718.50;4965924;28;20362;-72
2021/10/10 18:37:18;;;;;;;5.20;1.35;;;;;;;7.56;84.24;99718.47;4972742;28;20027;-73
2021/10/10 18:39:43;;;;;;;1.05;1.05;;;;;;;7.60;83.58;99715.06;4970393;28;20027;-72
2021/10/10 18:42:09;;;;;;;2.30;2.10;;;;;;;7.47;84.05;99725.25;4973319;28;20031;-72
2021/10/10 18:44:35;;;;;;;0.88;0.88;;;;;;;7.35;84.05;99730.28;4974180;28;20023;-72
2021/10/10 18:47:01;;;;;;;0.60;0.60;;;;;;;7.10;85.49;99738.59;4974209;28;20015;-72
2021/10/10 18:49:26;;;;;;;0.85;0.85;;;;;;;7.07;85.84;99733.41;4971740;28;20033;-72
2021/10/10 18:51:52;;;;;;;1.35;1.27;;;;;;;6.94;86.26;99733.25;4974219;28;20023;-72
2021/10/10 18:54:17;;;;;;;1.67;1.58;;;;;;;6.94;86.39;99729.81;4973877;28;20027;-73
2021/10/10 18:56:44;;;;;;;3.10;1.58;;;;;;;6.91;87.00;99733.25;4965185;28;20054;-72
2021/10/10 18:59:10;;;;;;;0.60;0.60;;;;;;;6.79;87.93;99727.94;4972885;28;20026;-72
2021/10/10 19:01:37;;;;;;;3.33;2.25;;;;;;;6.76;88.05;99724.44;4969573;28;20480;-72
2021/10/10 19:04:03;;;;;;;1.02;1.02;;;;;;;6.67;88.24;99733.78;4974056;28;20027;-72
2021/10/10 19:06:29;;;;;;;1.65;1.02;;;;;;;6.63;88.48;99732.03;4974224;28;20026;-72